Time;durP1;ratioP1;P1;durP2;ratioP2;P2;SDS_P1;SDS_P2;PMS_P1;PMS_P2;Temp;Humidity;BMP_temperature;BMP_pressure;BME280_temperature;BME280_humidity;BME280_pressure;Samples;Min_cycle;Max_cycle;Signal;HPM_P1;HPM_P2
2021/12/28 00:00:49;;;;;;;75.05;24.70;;;;;;;0.24;nan;100223.22;5042362;28;20075;-75
2021/12/28 00:03:36;;;;;;;80.50;26.45;;;;;;;0.12;nan;100214.97;5040776;28;20049;-76
2021/12/28 00:06:22;;;;;;;293.30;41.90;;;;;;;0.25;nan;100230.03;5037649;28;20033;-76
2021/12/28 00:09:08;;;;;;;80.13;26.40;;;;;;;0.19;nan;100229.72;5051140;28;20037;-76
2021/12/28 00:11:54;;;;;;;98.72;28.05;;;;;;;0.25;nan;100230.84;5040119;28;20033;-75
2021/12/28 00:14:49;;;;;;;78.55;26.02;;;;;;;0.21;nan;100219.19;5046741;28;20037;-76
2021/12/28 00:20:42;;;;;;;89.22;28.33;;;;;;;0.32;nan;100234.41;5045202;28;20406;-76
2021/12/28 00:23:39;;;;;;;80.95;28.23;;;;;;;0.37;nan;100239.91;5054728;28;20491;-76
2021/12/28 00:26:25;;;;;;;74.68;28.17;;;;;;;0.34;nan;100235.06;5051559;28;20490;-75
2021/12/28 00:29:10;;;;;;;81.70;28.08;;;;;;;0.36;nan;100238.31;5044679;28;20178;-75
2021/12/28 00:31:56;;;;;;;82.43;28.90;;;;;;;0.33;nan;100236.00;5045423;28;20067;-76
2021/12/28 00:34:42;;;;;;;92.13;26.60;;;;;;;0.32;nan;100234.41;5044253;28;20037;-76
2021/12/28 00:37:28;;;;;;;92.15;26.90;;;;;;;0.32;nan;100226.63;5039170;28;20041;-76
2021/12/28 00:40:14;;;;;;;92.88;24.50;;;;;;;0.34;nan;100236.84;5052419;28;20079;-76
2021/12/28 00:43:00;;;;;;;841.03;66.07;;;;;;;0.30;nan;100238.13;5052024;28;20064;-76
2021/12/28 00:45:46;;;;;;;95.78;28.15;;;;;;;0.33;nan;100246.38;5042306;28;20029;-76
2021/12/28 00:48:32;;;;;;;103.30;27.48;;;;;;;0.38;nan;100245.88;5049097;28;20033;-75
2021/12/28 00:51:18;;;;;;;97.32;27.85;;;;;;;0.39;nan;100250.13;5045955;28;20061;-76
2021/12/28 00:54:04;;;;;;;213.32;31.92;;;;;;;0.27;nan;100223.72;5040361;28;20076;-76
2021/12/28 00:56:50;;;;;;;380.42;51.47;;;;;;;0.36;nan;100232.28;5041882;28;20510;-76
2021/12/28 00:59:36;;;;;;;188.68;33.35;;;;;;;0.39;nan;100235.38;5041730;28;20045;-76
2021/12/28 01:02:21;;;;;;;111.70;27.75;;;;;;;0.29;nan;100219.19;5047592;28;20053;-76
2021/12/28 01:05:09;;;;;;;104.10;27.50;;;;;;;0.36;nan;100227.94;5048575;28;20033;-76
2021/12/28 01:07:55;;;;;;;100.93;28.20;;;;;;;0.34;nan;100218.72;5049758;28;20127;-76
2021/12/28 01:10:46;;;;;;;114.35;28.92;;;;;;;0.34;nan;100213.53;5039767;28;20128;-76
2021/12/28 01:13:32;;;;;;;187.95;30.58;;;;;;;0.37;nan;100224.38;5053103;28;20573;-76
2021/12/28 01:16:18;;;;;;;105.75;27.45;;;;;;;0.36;nan;100217.56;5054378;28;20179;-76
2021/12/28 01:19:05;;;;;;;104.45;29.30;;;;;;;0.44;nan;100215.94;5039293;28;20038;-76
2021/12/28 01:21:51;;;;;;;110.07;27.13;;;;;;;0.30;nan;100189.72;5046037;28;20047;-73
2021/12/28 01:24:37;;;;;;;134.75;29.38;;;;;;;0.44;nan;100213.38;5046699;28;20042;-73
2021/12/28 01:27:22;;;;;;;114.18;30.42;;;;;;;0.40;nan;100198.13;5049410;28;20099;-73
2021/12/28 01:30:10;;;;;;;121.10;29.95;;;;;;;0.34;nan;100182.47;5051965;28;20025;-73
2021/12/28 01:33:01;;;;;;;126.32;28.98;;;;;;;0.47;nan;100206.06;5045056;28;20552;-74
2021/12/28 01:35:47;;;;;;;113.28;27.77;;;;;;;0.47;nan;100198.28;5053476;28;20127;-73
2021/12/28 01:38:32;;;;;;;268.55;42.97;;;;;;;0.47;nan;100195.69;5044980;28;20133;-74
2021/12/28 01:41:18;;;;;;;119.50;27.85;;;;;;;0.35;nan;100169.31;5040006;28;20044;-74
2021/12/28 01:44:07;;;;;;;95.50;26.67;;;;;;;0.40;nan;100176.59;5051858;28;20510;-73
2021/12/28 01:46:53;;;;;;;113.03;27.47;;;;;;;0.42;nan;100179.84;5059618;28;20041;-74
2021/12/28 01:49:38;;;;;;;98.38;28.15;;;;;;;0.41;nan;100180.81;5044805;28;20041;-74
2021/12/28 01:52:24;;;;;;;109.63;28.60;;;;;;;0.41;nan;100180.81;5041214;28;20034;-73
2021/12/28 01:55:10;;;;;;;106.72;28.33;;;;;;;0.47;nan;100200.06;5039961;28;20099;-74
2021/12/28 01:57:56;;;;;;;121.35;28.05;;;;;;;0.44;nan;100193.44;5041424;28;20511;-74
2021/12/28 02:00:44;;;;;;;115.32;27.30;;;;;;;0.42;nan;100185.03;5048727;28;20110;-74
2021/12/28 02:03:30;;;;;;;125.40;28.48;;;;;;;0.46;nan;100188.13;5040282;28;20527;-74
2021/12/28 02:06:16;;;;;;;104.97;28.08;;;;;;;0.36;nan;100172.72;5040275;28;20404;-74
2021/12/28 02:09:03;;;;;;;113.45;28.70;;;;;;;0.53;nan;100200.25;5045407;28;20404;-74
2021/12/28 02:11:49;;;;;;;113.15;29.23;;;;;;;0.40;nan;100179.19;5048111;28;20120;-74
2021/12/28 02:14:36;;;;;;;114.25;28.00;;;;;;;0.47;nan;100187.94;5045005;28;20549;-74
2021/12/28 02:17:21;;;;;;;119.45;29.25;;;;;;;0.51;nan;100191.81;5041432;28;20039;-74
2021/12/28 02:20:14;;;;;;;101.47;26.85;;;;;;;0.51;nan;100184.03;5051297;28;20410;-74
2021/12/28 02:23:00;;;;;;;102.78;26.52;;;;;;;0.47;nan;100180.16;5039260;28;20103;-74
2021/12/28 02:25:46;;;;;;;98.50;26.77;;;;;;;0.34;nan;100156.56;5037920;28;20037;-75
2021/12/28 02:28:32;;;;;;;103.53;26.95;;;;;;;0.63;nan;100202.66;5043412;28;20068;-74
2021/12/28 02:31:18;;;;;;;87.82;25.02;;;;;;;0.52;nan;100175.28;5047359;28;20032;-74
2021/12/28 02:34:04;;;;;;;90.13;24.00;;;;;;;0.52;nan;100174.47;5041415;28;20048;-75
2021/12/28 02:36:50;;;;;;;85.80;23.08;;;;;;;0.60;nan;100183.06;5038546;28;20044;-74
2021/12/28 02:39:36;;;;;;;85.40;24.42;;;;;;;0.53;nan;100173.53;5048468;28;20095;-74
2021/12/28 02:42:24;;;;;;;84.57;24.00;;;;;;;0.59;nan;100175.44;5044374;28;20471;-75
2021/12/28 02:45:14;;;;;;;89.55;24.83;;;;;;;0.57;nan;100177.38;5042891;28;20083;-74
2021/12/28 02:48:02;;;;;;;84.47;25.20;;;;;;;0.59;nan;100178.03;5045356;28;20399;-74
2021/12/28 02:50:52;;;;;;;95.50;26.80;;;;;;;0.54;nan;100162.19;5050203;28;20041;-74
2021/12/28 02:53:38;;;;;;;99.65;26.88;;;;;;;0.69;nan;100188.22;5044291;28;20114;-74
2021/12/28 02:56:24;;;;;;;96.03;25.48;;;;;;;0.63;nan;100174.16;5052022;28;20040;-74
2021/12/28 02:59:10;;;;;;;88.70;24.25;;;;;;;0.70;nan;100179.47;5034777;28;20040;-75
2021/12/28 03:01:56;;;;;;;89.38;26.02;;;;;;;0.65;nan;100164.44;5045062;28;20059;-74
2021/12/28 03:04:42;;;;;;;79.40;23.23;;;;;;;0.70;nan;100179.47;5044518;28;20115;-74
2021/12/28 03:07:31;;;;;;;86.05;23.42;;;;;;;0.57;nan;100161.84;5049320;28;20048;-74
2021/12/28 03:10:17;;;;;;;77.13;21.63;;;;;;;0.49;nan;100160.09;5045532;28;20415;-75
2021/12/28 03:13:03;;;;;;;85.03;23.05;;;;;;;0.52;nan;100164.91;5043133;28;20087;-74
2021/12/28 03:15:50;;;;;;;71.47;20.98;;;;;;;0.50;nan;100159.09;5034226;28;20037;-74
2021/12/28 03:18:36;;;;;;;96.97;23.27;;;;;;;0.54;nan;100157.78;5038796;28;20386;-74
2021/12/28 03:21:23;;;;;;;63.88;20.42;;;;;;;0.53;nan;100145.03;5046288;28;20041;-74
2021/12/28 03:24:09;;;;;;;63.38;20.77;;;;;;;0.60;nan;100153.75;5036168;28;20038;-74
2021/12/28 03:26:55;;;;;;;69.53;17.25;;;;;;;0.62;nan;100162.16;5042356;28;20037;-74
2021/12/28 03:29:40;;;;;;;47.50;15.02;;;;;;;0.66;nan;100167.81;5042637;28;20033;-74
2021/12/28 03:32:26;;;;;;;36.88;12.73;;;;;;;0.57;nan;100159.25;5039886;28;20043;-77
2021/12/28 03:35:14;;;;;;;30.48;11.65;;;;;;;0.61;nan;100173.50;5040545;28;20035;-77
2021/12/28 03:38:00;;;;;;;29.30;10.98;;;;;;;0.59;nan;100176.25;5040250;28;20033;-77
2021/12/28 03:40:47;;;;;;;34.05;12.45;;;;;;;0.58;nan;100179.03;5051612;28;20045;-76
2021/12/28 03:43:33;;;;;;;36.40;13.05;;;;;;;0.47;nan;100176.75;5049855;28;20037;-77
2021/12/28 03:46:21;;;;;;;38.80;13.25;;;;;;;0.54;nan;100194.06;5040400;28;20038;-77
2021/12/28 03:49:07;;;;;;;31.98;12.27;;;;;;;0.51;nan;100189.22;5037694;28;20044;-76
2021/12/28 03:51:52;;;;;;;31.58;12.63;;;;;;;0.44;nan;100187.47;5046681;28;20032;-77
2021/12/28 03:54:38;;;;;;;31.58;12.95;;;;;;;0.49;nan;100190.38;5049873;28;20034;-77
2021/12/28 03:57:24;;;;;;;32.45;13.07;;;;;;;0.50;nan;100191.97;5038203;28;20041;-76
2021/12/28 04:00:14;;;;;;;30.40;12.02;;;;;;;0.41;nan;100188.59;5053656;28;20033;-77
2021/12/28 04:02:59;;;;;;;26.63;10.98;;;;;;;0.48;nan;100188.72;5047348;28;20075;-77
2021/12/28 04:05:45;;;;;;;26.35;11.35;;;;;;;0.39;nan;100175.81;5038764;28;20404;-77
2021/12/28 04:08:31;;;;;;;30.70;10.98;;;;;;;0.49;nan;100195.53;5041703;28;20041;-76
2021/12/28 04:14:07;;;;;;;28.23;11.30;;;;;;;0.47;nan;100192.31;5046398;28;20403;-77
2021/12/28 04:16:53;;;;;;;24.52;9.80;;;;;;;0.49;nan;100190.38;5053181;28;20040;-77
2021/12/28 04:19:39;;;;;;;24.67;9.73;;;;;;;0.38;nan;100176.78;5040814;28;20053;-77
2021/12/28 04:22:25;;;;;;;19.92;9.65;;;;;;;0.41;nan;100170.47;5049522;28;20046;-77
2021/12/28 04:25:14;;;;;;;22.17;10.63;;;;;;;0.45;nan;100184.69;5043291;28;20029;-77
2021/12/28 04:28:00;;;;;;;23.35;10.02;;;;;;;0.40;nan;100171.41;5041840;28;20045;-77
2021/12/28 04:30:46;;;;;;;22.85;9.77;;;;;;;0.49;nan;100174.81;5045571;28;20033;-77
2021/12/28 04:33:32;;;;;;;25.02;10.20;;;;;;;0.14;nan;100120.63;5043328;28;20041;-76
2021/12/28 04:36:20;;;;;;;24.88;10.05;;;;;;;0.45;nan;100181.28;5041547;28;20120;-77
2021/12/28 04:39:06;;;;;;;25.40;10.68;;;;;;;0.44;nan;100183.09;5041146;28;20061;-77
2021/12/28 04:41:52;;;;;;;24.75;10.15;;;;;;;0.44;nan;100177.91;5045197;28;20060;-77
2021/12/28 04:44:38;;;;;;;24.52;10.50;;;;;;;0.46;nan;100180.34;5044396;28;20037;-77
2021/12/28 04:47:23;;;;;;;23.17;9.50;;;;;;;0.45;nan;100189.06;5043019;28;20124;-77
2021/12/28 04:50:10;;;;;;;21.77;9.73;;;;;;;0.35;nan;100165.94;5046142;28;20399;-76
2021/12/28 04:52:58;;;;;;;24.65;10.52;;;;;;;0.38;nan;100176.78;5043733;28;20095;-76
2021/12/28 04:55:46;;;;;;;27.63;11.20;;;;;;;0.40;nan;100176.59;5046733;28;20033;-77
2021/12/28 04:58:32;;;;;;;25.95;10.93;;;;;;;0.04;nan;100122.59;5038726;28;20037;-77
2021/12/28 05:01:18;;;;;;;26.58;12.30;;;;;;;0.35;nan;100173.69;5041112;28;20094;-76
2021/12/28 05:04:05;;;;;;;24.52;11.60;;;;;;;0.31;nan;100167.22;5047792;28;20037;-77
2021/12/28 05:06:54;;;;;;;29.55;12.32;;;;;;;0.38;nan;100175.94;5036737;28;20049;-77
2021/12/28 05:09:40;;;;;;;1999.90;770.33;;;;;;;0.34;nan;100133.25;5036562;28;20073;-77
2021/12/28 05:12:27;;;;;;;51.53;17.25;;;;;;;0.97;nan;100167.88;5049447;28;20041;-76
2021/12/28 05:15:13;;;;;;;48.90;15.98;;;;;;;1.05;nan;100171.28;5047077;28;20052;-77
2021/12/28 05:17:59;;;;;;;42.78;15.93;;;;;;;0.98;nan;100161.72;5038487;28;20041;-77
2021/12/28 05:20:45;;;;;;;40.88;15.25;;;;;;;0.93;nan;100164.81;5035258;28;20492;-77
2021/12/28 05:23:31;;;;;;;35.40;14.10;;;;;;;0.93;nan;100166.59;5039138;28;20040;-76
2021/12/28 05:26:17;;;;;;;35.33;14.25;;;;;;;0.86;nan;100163.84;5041673;28;20038;-76
2021/12/28 05:29:03;;;;;;;36.13;13.10;;;;;;;0.87;nan;100170.69;5040022;28;20052;-77
2021/12/28 05:31:49;;;;;;;32.17;12.93;;;;;;;0.73;nan;100146.25;5042761;28;20044;-77
2021/12/28 05:34:34;;;;;;;30.73;13.43;;;;;;;0.75;nan;100165.03;5043076;28;20499;-76
2021/12/28 05:37:21;;;;;;;30.88;13.18;;;;;;;0.69;nan;100164.88;5043308;28;20033;-77
2021/12/28 05:40:09;;;;;;;33.17;13.68;;;;;;;0.74;nan;100157.41;5052219;28;20041;-77
2021/12/28 05:42:55;;;;;;;34.70;14.03;;;;;;;0.61;nan;100138.03;5039292;28;20388;-77
2021/12/28 05:45:43;;;;;;;39.95;14.57;;;;;;;0.74;nan;100160.84;5042533;28;20037;-76
2021/12/28 05:48:28;;;;;;;42.03;14.77;;;;;;;0.75;nan;100157.25;5044861;28;20465;-76
2021/12/28 05:51:15;;;;;;;43.83;16.80;;;;;;;0.67;nan;100125.38;5049063;28;20033;-77
2021/12/28 05:54:01;;;;;;;43.97;15.57;;;;;;;0.77;nan;100157.91;5036860;28;20505;-77
2021/12/28 05:56:46;;;;;;;37.17;14.85;;;;;;;0.71;nan;100145.59;5050927;28;20477;-77
2021/12/28 05:59:32;;;;;;;35.63;13.93;;;;;;;0.57;nan;100130.75;5048147;28;20079;-77
2021/12/28 06:02:18;;;;;;;37.28;15.55;;;;;;;0.62;nan;100147.44;5042928;28;20048;-77
2021/12/28 06:05:05;;;;;;;42.53;15.50;;;;;;;0.63;nan;100148.22;5045428;28;20113;-77
2021/12/28 06:07:50;;;;;;;35.70;14.93;;;;;;;0.64;nan;100161.00;5041076;28;20071;-76
2021/12/28 06:10:36;;;;;;;39.88;14.55;;;;;;;0.60;nan;100151.16;5051729;28;20542;-77
2021/12/28 06:13:23;;;;;;;43.70;15.85;;;;;;;0.61;nan;100155.34;5048101;28;20037;-74
2021/12/28 06:16:09;;;;;;;41.50;14.65;;;;;;;0.56;nan;100160.22;5048346;28;20029;-77
2021/12/28 06:18:55;;;;;;;45.45;15.68;;;;;;;0.52;nan;100148.56;5047655;28;20071;-77
2021/12/28 06:21:41;;;;;;;44.35;16.20;;;;;;;0.50;nan;100140.97;5059293;28;20037;-77
2021/12/28 06:24:27;;;;;;;44.05;16.70;;;;;;;0.55;nan;100143.88;5043330;28;20031;-77
2021/12/28 06:27:12;;;;;;;44.63;17.23;;;;;;;0.59;nan;100147.75;5047445;28;20128;-78
2021/12/28 06:29:58;;;;;;;46.85;16.73;;;;;;;0.66;nan;100153.06;5042591;28;20037;-76
2021/12/28 06:32:44;;;;;;;48.05;17.45;;;;;;;0.70;nan;100156.97;5043858;28;20033;-76
2021/12/28 06:35:30;;;;;;;49.03;17.08;;;;;;;0.73;nan;100155.81;5034189;28;20047;-77
2021/12/28 06:38:17;;;;;;;46.92;17.42;;;;;;;0.68;nan;100151.13;5040417;28;20116;-78
2021/12/28 06:41:03;;;;;;;40.53;15.27;;;;;;;0.69;nan;100144.97;5037183;28;20037;-77
2021/12/28 06:43:49;;;;;;;40.42;15.88;;;;;;;0.69;nan;100142.38;5035367;28;20112;-76
2021/12/28 06:46:36;;;;;;;38.25;15.50;;;;;;;0.78;nan;100153.53;5041095;28;20465;-77
2021/12/28 06:49:22;;;;;;;38.00;15.77;;;;;;;0.78;nan;100151.75;5031762;28;20041;-77
2021/12/28 06:52:08;;;;;;;37.30;15.40;;;;;;;0.74;nan;100141.88;5040403;28;20043;-76
2021/12/28 06:54:53;;;;;;;36.45;14.93;;;;;;;0.72;nan;100141.22;5032729;28;20140;-75
2021/12/28 06:57:39;;;;;;;32.53;14.25;;;;;;;0.73;nan;100143.66;5033319;28;20041;-76
2021/12/28 07:00:25;;;;;;;30.77;13.13;;;;;;;0.73;nan;100155.81;5034531;28;20052;-76
2021/12/28 07:03:11;;;;;;;29.02;12.02;;;;;;;0.73;nan;100161.00;5030362;28;20128;-75
2021/12/28 07:05:56;;;;;;;33.08;12.48;;;;;;;0.72;nan;100160.19;5031146;28;20030;-76
2021/12/28 07:08:43;;;;;;;28.80;12.05;;;;;;;0.78;nan;100166.50;5031469;28;20037;-76
2021/12/28 07:11:29;;;;;;;35.92;12.25;;;;;;;0.66;nan;100145.31;5038054;28;20087;-75
2021/12/28 07:14:15;;;;;;;29.23;12.77;;;;;;;0.75;nan;100153.88;5038941;28;20045;-75
2021/12/28 07:17:00;;;;;;;30.80;12.02;;;;;;;0.80;nan;100154.97;5042815;28;20399;-75
2021/12/28 07:19:46;;;;;;;29.02;11.55;;;;;;;0.75;nan;100152.09;5058507;28;20479;-75
2021/12/28 07:22:32;;;;;;;31.52;12.00;;;;;;;0.71;nan;100142.22;5056351;28;20040;-78
2021/12/28 07:25:18;;;;;;;33.42;13.05;;;;;;;0.81;nan;100154.03;5050118;28;20037;-75
2021/12/28 07:28:04;;;;;;;27.80;11.98;;;;;;;0.86;nan;100161.25;5048678;28;20038;-76
2021/12/28 07:30:51;;;;;;;26.48;11.38;;;;;;;0.94;nan;100173.41;5060935;28;20032;-76
2021/12/28 07:33:36;;;;;;;29.80;11.93;;;;;;;0.89;nan;100168.72;5048252;28;20044;-76
2021/12/28 07:36:23;;;;;;;30.52;12.25;;;;;;;0.97;nan;100171.28;5051129;28;20120;-76
2021/12/28 07:39:09;;;;;;;28.88;11.38;;;;;;;0.92;nan;100159.81;5048920;28;20037;-75
2021/12/28 07:41:54;;;;;;;34.22;12.27;;;;;;;0.98;nan;100167.72;5046799;28;20115;-75
2021/12/28 07:44:40;;;;;;;31.25;12.20;;;;;;;0.96;nan;100156.72;5048279;28;20040;-75
2021/12/28 07:47:26;;;;;;;31.38;13.13;;;;;;;0.96;nan;100148.94;5049032;28;20097;-75
2021/12/28 07:50:14;;;;;;;36.92;12.93;;;;;;;1.06;nan;100164.28;5049836;28;20037;-74
2021/12/28 07:53:00;;;;;;;32.38;12.13;;;;;;;1.05;nan;100160.91;5046459;28;20033;-74
2021/12/28 07:55:46;;;;;;;32.25;12.88;;;;;;;1.19;nan;100179.28;5047961;28;20047;-74
2021/12/28 07:58:32;;;;;;;33.90;12.90;;;;;;;1.14;nan;100169.44;5040422;28;20029;-74
2021/12/28 08:01:17;;;;;;;31.15;12.77;;;;;;;1.21;nan;100178.16;5043009;28;20051;-74
2021/12/28 08:04:03;;;;;;;31.67;13.35;;;;;;;1.23;nan;100178.78;5043845;28;20103;-74
2021/12/28 08:06:49;;;;;;;35.70;13.93;;;;;;;1.22;nan;100172.00;5042070;28;20067;-74
2021/12/28 08:09:35;;;;;;;35.90;13.88;;;;;;;1.26;nan;100167.28;5042873;28;20041;-75
2021/12/28 08:12:20;;;;;;;40.58;15.52;;;;;;;1.05;nan;100137.56;5046042;28;20041;-74
2021/12/28 08:15:07;;;;;;;34.70;14.07;;;;;;;1.20;nan;100166.16;5042418;28;20510;-76
2021/12/28 08:17:53;;;;;;;33.58;14.27;;;;;;;1.17;nan;100153.53;5043445;28;20491;-76
2021/12/28 08:20:39;;;;;;;39.42;14.68;;;;;;;1.15;nan;100141.69;5046994;28;20168;-74
2021/12/28 08:23:24;;;;;;;38.42;16.23;;;;;;;1.27;nan;100158.53;5039534;28;20487;-74
2021/12/28 08:26:10;;;;;;;37.70;15.48;;;;;;;1.25;nan;100152.69;5041242;28;20040;-74
2021/12/28 08:28:56;;;;;;;39.65;15.60;;;;;;;1.25;nan;100160.47;5048598;28;20040;-73
2021/12/28 08:31:42;;;;;;;36.33;15.38;;;;;;;1.14;nan;100145.28;5047220;28;20079;-76
2021/12/28 08:34:28;;;;;;;42.22;15.45;;;;;;;1.25;nan;100150.09;5042624;28;20498;-74
2021/12/28 08:37:14;;;;;;;42.35;15.23;;;;;;;1.25;nan;100147.50;5035632;28;20079;-74
2021/12/28 08:40:00;;;;;;;44.97;17.17;;;;;;;1.19;nan;100137.81;5052231;28;20513;-71
2021/12/28 08:42:46;;;;;;;42.92;16.02;;;;;;;1.24;nan;100151.06;5055910;28;20053;-71
2021/12/28 08:45:33;;;;;;;48.03;17.13;;;;;;;1.41;nan;100177.72;5054729;28;20060;-71
2021/12/28 08:48:19;;;;;;;47.60;17.55;;;;;;;1.44;nan;100180.00;5054753;28;20076;-72
2021/12/28 08:51:04;;;;;;;49.08;18.40;;;;;;;1.43;nan;100175.78;5046268;28;20053;-72
2021/12/28 08:53:51;;;;;;;53.67;18.38;;;;;;;1.44;nan;100193.78;5050964;28;20037;-71
2021/12/28 08:56:37;;;;;;;54.38;19.55;;;;;;;1.51;nan;100198.28;5045354;28;20063;-70
2021/12/28 08:59:23;;;;;;;50.17;18.55;;;;;;;1.47;nan;100190.03;5046414;28;20503;-72
2021/12/28 09:02:09;;;;;;;55.97;18.60;;;;;;;1.35;nan;100189.59;5049846;28;20064;-72
2021/12/28 09:04:55;;;;;;;49.60;19.23;;;;;;;1.42;nan;100193.13;5033490;28;20621;-72
2021/12/28 09:07:41;;;;;;;45.22;19.33;;;;;;;1.39;nan;100175.31;5044633;28;20553;-73
2021/12/28 09:10:26;;;;;;;55.40;20.05;;;;;;;1.44;nan;100180.00;5039884;28;20046;-72
2021/12/28 09:13:14;;;;;;;48.50;18.02;;;;;;;1.47;nan;100193.44;5042131;28;20090;-71
2021/12/28 09:15:59;;;;;;;49.83;18.80;;;;;;;1.54;nan;100187.56;5049397;28;20033;-71
2021/12/28 09:18:45;;;;;;;51.17;18.98;;;;;;;1.61;nan;100180.72;5049998;28;20103;-70
2021/12/28 09:21:31;;;;;;;49.70;19.17;;;;;;;1.61;nan;100183.31;5042604;28;20075;-70
2021/12/28 09:24:17;;;;;;;42.38;17.05;;;;;;;1.65;nan;100179.38;5041815;28;20108;-70
2021/12/28 09:27:04;;;;;;;44.58;15.77;;;;;;;1.55;nan;100158.84;5040637;28;20032;-71
2021/12/28 09:29:49;;;;;;;43.45;16.65;;;;;;;1.61;nan;100171.13;5048307;28;20772;-70
2021/12/28 09:32:36;;;;;;;46.40;16.48;;;;;;;1.70;nan;100167.50;5047893;28;20511;-71
2021/12/28 09:35:21;;;;;;;39.08;15.50;;;;;;;1.61;nan;100144.38;5045939;28;20446;-70
2021/12/28 09:38:07;;;;;;;39.08;14.30;;;;;;;1.79;nan;100167.44;5047940;28;20033;-71
2021/12/28 09:40:54;;;;;;;36.78;14.75;;;;;;;1.81;nan;100171.47;5057411;28;20111;-71
2021/12/28 09:43:40;;;;;;;36.25;14.15;;;;;;;1.75;nan;100143.63;5041856;28;20067;-71
2021/12/28 09:46:25;;;;;;;30.48;12.90;;;;;;;1.82;nan;100148.91;5045336;28;20039;-70
2021/12/28 09:49:11;;;;;;;32.78;13.02;;;;;;;1.81;nan;100134.34;5041038;28;20033;-73
2021/12/28 09:52:04;;;;;;;37.72;13.82;;;;;;;1.95;nan;100140.56;5035507;28;20039;-72
2021/12/28 09:54:50;;;;;;;32.85;13.95;;;;;;;1.57;nan;100083.41;5038544;28;20045;-72
2021/12/28 09:57:36;;;;;;;31.70;13.77;;;;;;;1.64;nan;100092.91;5048545;28;20450;-73
2021/12/28 10:00:23;;;;;;;31.98;13.48;;;;;;;2.00;nan;100148.63;5043433;28;20740;-72
2021/12/28 10:03:09;;;;;;;32.63;13.52;;;;;;;1.83;nan;100130.59;5043174;28;20041;-73
2021/12/28 10:05:55;;;;;;;31.05;13.93;;;;;;;1.84;nan;100132.19;5039375;28;20083;-72
2021/12/28 10:08:42;;;;;;;33.40;14.75;;;;;;;1.96;nan;100148.16;5041688;28;20033;-73
2021/12/28 10:11:35;;;;;;;30.23;13.07;;;;;;;2.05;nan;100157.50;5044878;28;20038;-73
2021/12/28 10:14:26;;;;;;;29.70;12.63;;;;;;;2.12;nan;100162.81;5037022;28;20526;-73
2021/12/28 10:17:23;;;;;;;27.02;11.73;;;;;;;2.15;nan;100161.66;5034682;28;20467;-72
2021/12/28 10:20:24;;;;;;;30.75;12.43;;;;;;;2.09;nan;100153.59;5033241;28;20120;-71
2021/12/28 10:23:16;;;;;;;29.05;11.55;;;;;;;2.18;nan;100154.34;5041918;28;20064;-74
2021/12/28 10:26:10;;;;;;;34.47;14.13;;;;;;;2.16;nan;100145.09;5045889;28;20059;-73
2021/12/28 10:28:56;;;;;;;31.58;13.13;;;;;;;2.15;nan;100159.06;5056542;28;20037;-71
2021/12/28 10:31:41;;;;;;;27.98;12.55;;;;;;;2.14;nan;100140.06;5043034;28;20076;-70
2021/12/28 10:34:27;;;;;;;28.80;13.77;;;;;;;2.21;nan;100163.56;5050884;28;20052;-71
2021/12/28 10:37:25;;;;;;;32.90;13.80;;;;;;;2.29;nan;100158.28;5035052;28;20039;-72
2021/12/28 10:40:13;;;;;;;29.58;13.50;;;;;;;2.04;nan;100119.53;5031966;28;20075;-72
2021/12/28 10:43:03;;;;;;;27.33;12.93;;;;;;;2.36;nan;100154.00;5049410;28;20472;-72
2021/12/28 10:45:54;;;;;;;30.98;14.38;;;;;;;2.35;nan;100147.19;5038232;28;20495;-71
2021/12/28 10:48:50;;;;;;;32.60;13.98;;;;;;;2.31;nan;100130.34;5048435;28;20534;-71
2021/12/28 10:51:42;;;;;;;33.80;15.77;;;;;;;2.46;nan;100143.34;5042800;28;20045;-71
2021/12/28 10:54:27;;;;;;;34.22;15.48;;;;;;;2.38;nan;100120.03;5034823;28;20128;-71
2021/12/28 10:57:13;;;;;;;30.52;13.27;;;;;;;2.53;nan;100139.03;5030870;28;20034;-71
2021/12/28 11:00:20;;;;;;;25.33;10.93;;;;;;;2.58;nan;100141.91;5045561;28;20127;-72
2021/12/28 11:03:20;;;;;;;25.05;11.95;;;;;;;2.58;nan;100143.69;5047276;28;20626;-71
2021/12/28 11:06:11;;;;;;;26.98;11.82;;;;;;;2.56;nan;100143.88;5030672;28;20077;-70
2021/12/28 11:09:04;;;;;;;28.75;12.82;;;;;;;2.49;nan;100122.19;5039099;28;20411;-72
2021/12/28 11:11:53;;;;;;;24.63;11.27;;;;;;;2.58;nan;100138.50;5037606;28;20136;-71
2021/12/28 11:14:38;;;;;;;25.70;11.77;;;;;;;2.60;nan;100129.53;5034423;28;20037;-71
2021/12/28 11:17:31;;;;;;;28.40;13.48;;;;;;;2.54;nan;100109.47;5037500;28;20045;-72
2021/12/28 11:20:27;;;;;;;31.15;13.70;;;;;;;2.66;nan;100112.41;5046563;28;20045;-71
2021/12/28 11:23:23;;;;;;;25.25;11.68;;;;;;;2.57;nan;100087.53;5033857;28;20091;-72
2021/12/28 11:26:14;;;;;;;24.65;11.57;;;;;;;2.44;nan;100075.13;5040713;28;20041;-72
2021/12/28 11:29:11;;;;;;;22.77;10.98;;;;;;;2.62;nan;100091.19;5053182;28;20052;-72
2021/12/28 11:32:05;;;;;;;27.67;12.75;;;;;;;2.54;nan;100067.91;5037325;28;20033;-72
2021/12/28 11:34:52;;;;;;;26.73;13.00;;;;;;;2.59;nan;100083.75;5043091;28;20041;-71
2021/12/28 11:37:38;;;;;;;30.88;14.80;;;;;;;2.53;nan;100085.25;5035997;28;20042;-71
2021/12/28 11:40:24;;;;;;;32.17;15.30;;;;;;;2.51;nan;100076.84;5042059;28;20036;-71
2021/12/28 11:43:10;;;;;;;31.05;14.85;;;;;;;2.47;nan;100077.41;5038945;28;20045;-72
2021/12/28 11:45:55;;;;;;;25.17;12.93;;;;;;;2.53;nan;100082.66;5049188;28;20029;-71
2021/12/28 11:48:42;;;;;;;30.55;14.73;;;;;;;2.57;nan;100090.91;5038142;28;20099;-71
2021/12/28 11:51:28;;;;;;;31.98;16.00;;;;;;;2.57;nan;100080.53;5055455;28;20560;-71
2021/12/28 11:54:16;;;;;;;29.95;14.65;;;;;;;2.58;nan;100079.53;5033690;28;20103;-72
2021/12/28 11:57:11;;;;;;;31.63;15.98;;;;;;;2.59;nan;100075.94;5048514;28;20036;-71
2021/12/28 11:59:58;;;;;;;29.40;14.57;;;;;;;2.56;nan;100065.91;5039881;28;20522;-72
2021/12/28 12:02:49;;;;;;;33.03;14.88;;;;;;;2.57;nan;100067.53;5033375;28;20049;-72
2021/12/28 12:05:35;;;;;;;28.42;13.70;;;;;;;2.59;nan;100065.56;5036277;28;20087;-71
2021/12/28 12:08:20;;;;;;;27.80;13.05;;;;;;;2.49;nan;100059.81;5048521;28;20037;-72
2021/12/28 12:11:06;;;;;;;28.00;12.73;;;;;;;2.56;nan;100065.91;5040586;28;20045;-72
2021/12/28 12:13:52;;;;;;;26.10;12.68;;;;;;;2.49;nan;100049.41;5036351;28;20124;-71
2021/12/28 12:16:38;;;;;;;26.05;13.68;;;;;;;2.59;nan;100055.16;5045634;28;20132;-70
2021/12/28 12:19:46;;;;;;;26.63;13.07;;;;;;;2.61;nan;100062.75;5050282;28;20052;-72
2021/12/28 12:22:32;;;;;;;27.70;13.98;;;;;;;2.60;nan;100048.97;5055024;28;20128;-72
2021/12/28 12:25:48;;;;;;;25.60;12.95;;;;;;;2.58;nan;100035.34;5038836;28;20911;-72
2021/12/28 12:28:43;;;;;;;27.10;12.77;;;;;;;2.45;nan;100020.41;5037984;28;20377;-71
2021/12/28 12:31:31;;;;;;;26.33;13.65;;;;;;;2.49;nan;100020.81;5045306;28;20033;-71
2021/12/28 12:34:32;;;;;;;29.95;13.48;;;;;;;2.50;nan;100025.06;5034876;28;20411;-73
2021/12/28 12:37:21;;;;;;;28.38;13.15;;;;;;;2.36;nan;99998.09;5048765;28;20041;-72
2021/12/28 12:40:07;;;;;;;22.50;11.77;;;;;;;2.44;nan;100007.56;5036352;28;20032;-71
2021/12/28 12:43:13;;;;;;;24.98;12.98;;;;;;;2.48;nan;100021.81;5039756;28;20033;-72
2021/12/28 12:46:09;;;;;;;26.98;13.48;;;;;;;2.47;nan;100018.41;5037035;28;20619;-72
2021/12/28 12:48:58;;;;;;;26.52;13.25;;;;;;;2.39;nan;100015.09;5037398;28;20460;-72
2021/12/28 12:51:50;;;;;;;27.70;13.63;;;;;;;2.43;nan;100024.16;5042484;28;20068;-72
2021/12/28 12:54:43;;;;;;;29.17;14.25;;;;;;;2.42;nan;100022.53;5036450;28;20049;-72
2021/12/28 12:57:30;;;;;;;25.00;12.55;;;;;;;2.48;nan;100032.22;5048835;28;20373;-72
2021/12/28 13:00:19;;;;;;;26.88;13.40;;;;;;;2.48;nan;100019.22;5041409;28;20175;-72
2021/12/28 13:03:04;;;;;;;29.02;14.10;;;;;;;2.37;nan;100002.31;5033162;28;20055;-72
2021/12/28 13:05:51;;;;;;;31.83;14.02;;;;;;;2.33;nan;100006.25;5037636;28;20034;-73
2021/12/28 13:08:38;;;;;;;31.73;14.05;;;;;;;2.48;nan;100021.81;5046381;28;20053;-72
2021/12/28 13:11:31;;;;;;;31.58;14.13;;;;;;;2.51;nan;100024.06;5053398;28;20036;-73